sensor_id;sensor_type;location;lat;lon;timestamp;P1;durP1;ratioP1;P2;durP2;ratioP2
59532;SDS011;45351;53.596;10.000;2022-09-09T00:00:12;11.43;;;2.30;;
59532;SDS011;45351;53.596;10.000;2022-09-09T00:02:40;6.43;;;1.80;;
59532;SDS011;45351;53.596;10.000;2022-09-09T00:05:13;6.53;;;1.73;;
59532;SDS011;45351;53.596;10.000;2022-09-09T00:07:47;5.37;;;1.80;;
59532;SDS011;45351;53.596;10.000;2022-09-09T00:10:16;7.03;;;1.97;;
59532;SDS011;45351;53.596;10.000;2022-09-09T00:12:53;5.83;;;1.47;;
59532;SDS011;45351;53.596;10.000;2022-09-09T00:15:26;17.03;;;2.33;;
59532;SDS011;45351;53.596;10.000;2022-09-09T00:18:01;11.13;;;2.20;;
59532;SDS011;45351;53.596;10.000;2022-09-09T00:20:40;5.23;;;1.60;;
59532;SDS011;45351;53.596;10.000;2022-09-09T00:23:11;7.03;;;1.80;;
59532;SDS011;45351;53.596;10.000;2022-09-09T00:25:42;13.93;;;2.10;;
59532;SDS011;45351;53.596;10.000;2022-09-09T00:28:18;10.43;;;1.90;;
59532;SDS011;45351;53.596;10.000;2022-09-09T00:30:46;13.10;;;1.67;;
59532;SDS011;45351;53.596;10.000;2022-09-09T00:33:15;6.73;;;1.77;;
59532;SDS011;45351;53.596;10.000;2022-09-09T00:35:48;11.00;;;2.30;;
59532;SDS011;45351;53.596;10.000;2022-09-09T00:38:17;9.77;;;2.30;;
59532;SDS011;45351;53.596;10.000;2022-09-09T00:40:49;9.97;;;2.03;;
59532;SDS011;45351;53.596;10.000;2022-09-09T00:43:25;6.67;;;2.23;;
59532;SDS011;45351;53.596;10.000;2022-09-09T00:48:54;8.03;;;2.13;;
59532;SDS011;45351;53.596;10.000;2022-09-09T00:51:29;6.67;;;1.77;;
59532;SDS011;45351;53.596;10.000;2022-09-09T00:54:09;8.33;;;2.10;;
59532;SDS011;45351;53.596;10.000;2022-09-09T00:56:45;6.60;;;2.10;;
59532;SDS011;45351;53.596;10.000;2022-09-09T00:59:25;10.60;;;2.13;;
59532;SDS011;45351;53.596;10.000;2022-09-09T01:02:00;8.13;;;2.30;;
59532;SDS011;45351;53.596;10.000;2022-09-09T01:04:28;7.70;;;2.00;;
59532;SDS011;45351;53.596;10.000;2022-09-09T01:07:03;8.60;;;2.70;;
59532;SDS011;45351;53.596;10.000;2022-09-09T01:09:38;14.60;;;2.60;;
59532;SDS011;45351;53.596;10.000;2022-09-09T01:12:15;11.53;;;2.80;;
59532;SDS011;45351;53.596;10.000;2022-09-09T01:14:49;15.10;;;2.47;;
59532;SDS011;45351;53.596;10.000;2022-09-09T01:17:22;12.37;;;2.53;;
59532;SDS011;45351;53.596;10.000;2022-09-09T01:20:04;18.90;;;2.00;;
59532;SDS011;45351;53.596;10.000;2022-09-09T01:22:44;10.13;;;2.67;;
59532;SDS011;45351;53.596;10.000;2022-09-09T01:25:23;10.60;;;3.03;;
59532;SDS011;45351;53.596;10.000;2022-09-09T01:28:08;12.87;;;3.10;;
59532;SDS011;45351;53.596;10.000;2022-09-09T01:30:38;8.20;;;2.90;;
59532;SDS011;45351;53.596;10.000;2022-09-09T01:33:10;11.60;;;2.60;;
59532;SDS011;45351;53.596;10.000;2022-09-09T01:35:42;10.63;;;2.47;;
59532;SDS011;45351;53.596;10.000;2022-09-09T01:38:16;16.60;;;2.50;;
59532;SDS011;45351;53.596;10.000;2022-09-09T01:40:45;9.73;;;2.20;;
59532;SDS011;45351;53.596;10.000;2022-09-09T01:43:13;4.63;;;2.20;;
59532;SDS011;45351;53.596;10.000;2022-09-09T01:45:40;8.63;;;2.50;;
59532;SDS011;45351;53.596;10.000;2022-09-09T01:48:08;13.03;;;2.93;;
59532;SDS011;45351;53.596;10.000;2022-09-09T01:51:01;9.23;;;2.47;;
59532;SDS011;45351;53.596;10.000;2022-09-09T01:53:48;9.20;;;2.53;;
59532;SDS011;45351;53.596;10.000;2022-09-09T01:56:40;7.50;;;2.30;;
59532;SDS011;45351;53.596;10.000;2022-09-09T01:59:39;7.97;;;2.43;;
59532;SDS011;45351;53.596;10.000;2022-09-09T02:02:35;8.90;;;2.80;;
59532;SDS011;45351;53.596;10.000;2022-09-09T02:05:16;8.43;;;2.40;;
59532;SDS011;45351;53.596;10.000;2022-09-09T02:07:53;5.00;;;2.10;;
59532;SDS011;45351;53.596;10.000;2022-09-09T02:10:37;7.30;;;2.77;;
59532;SDS011;45351;53.596;10.000;2022-09-09T02:13:14;6.33;;;2.47;;
59532;SDS011;45351;53.596;10.000;2022-09-09T02:15:47;8.53;;;2.60;;
59532;SDS011;45351;53.596;10.000;2022-09-09T02:18:22;6.70;;;2.90;;
59532;SDS011;45351;53.596;10.000;2022-09-09T02:20:53;9.83;;;2.83;;
59532;SDS011;45351;53.596;10.000;2022-09-09T02:23:20;6.40;;;2.60;;
59532;SDS011;45351;53.596;10.000;2022-09-09T02:25:50;11.80;;;2.63;;
59532;SDS011;45351;53.596;10.000;2022-09-09T02:28:22;4.70;;;2.20;;
59532;SDS011;45351;53.596;10.000;2022-09-09T02:30:53;5.80;;;2.67;;
59532;SDS011;45351;53.596;10.000;2022-09-09T02:33:27;4.70;;;2.40;;
59532;SDS011;45351;53.596;10.000;2022-09-09T02:35:57;6.10;;;3.00;;
59532;SDS011;45351;53.596;10.000;2022-09-09T02:38:29;7.03;;;2.50;;
59532;SDS011;45351;53.596;10.000;2022-09-09T02:41:07;7.83;;;2.67;;
59532;SDS011;45351;53.596;10.000;2022-09-09T02:43:35;14.60;;;3.07;;
59532;SDS011;45351;53.596;10.000;2022-09-09T02:46:11;7.83;;;2.63;;
59532;SDS011;45351;53.596;10.000;2022-09-09T02:48:52;8.07;;;2.40;;
59532;SDS011;45351;53.596;10.000;2022-09-09T02:51:30;11.83;;;2.43;;
59532;SDS011;45351;53.596;10.000;2022-09-09T02:54:08;4.60;;;2.77;;
59532;SDS011;45351;53.596;10.000;2022-09-09T02:56:43;8.20;;;2.80;;
59532;SDS011;45351;53.596;10.000;2022-09-09T02:59:16;5.80;;;2.43;;
59532;SDS011;45351;53.596;10.000;2022-09-09T03:01:45;5.37;;;2.53;;
59532;SDS011;45351;53.596;10.000;2022-09-09T03:04:12;21.47;;;3.47;;
59532;SDS011;45351;53.596;10.000;2022-09-09T03:06:39;9.33;;;2.63;;
59532;SDS011;45351;53.596;10.000;2022-09-09T03:09:15;15.60;;;3.20;;
59532;SDS011;45351;53.596;10.000;2022-09-09T03:11:42;9.77;;;2.60;;
59532;SDS011;45351;53.596;10.000;2022-09-09T03:14:10;9.33;;;2.50;;
59532;SDS011;45351;53.596;10.000;2022-09-09T03:16:37;9.83;;;2.77;;
59532;SDS011;45351;53.596;10.000;2022-09-09T03:19:05;10.57;;;2.80;;
59532;SDS011;45351;53.596;10.000;2022-09-09T03:21:32;5.13;;;2.27;;
59532;SDS011;45351;53.596;10.000;2022-09-09T03:23:59;8.53;;;2.60;;
59532;SDS011;45351;53.596;10.000;2022-09-09T03:26:28;8.47;;;2.20;;
59532;SDS011;45351;53.596;10.000;2022-09-09T03:28:57;6.27;;;1.90;;
59532;SDS011;45351;53.596;10.000;2022-09-09T03:31:25;8.73;;;1.90;;
59532;SDS011;45351;53.596;10.000;2022-09-09T03:33:55;12.33;;;2.40;;
59532;SDS011;45351;53.596;10.000;2022-09-09T03:36:25;3.87;;;2.30;;
59532;SDS011;45351;53.596;10.000;2022-09-09T03:38:53;7.60;;;2.27;;
59532;SDS011;45351;53.596;10.000;2022-09-09T03:41:22;6.40;;;2.90;;
59532;SDS011;45351;53.596;10.000;2022-09-09T03:43:49;5.33;;;2.13;;
59532;SDS011;45351;53.596;10.000;2022-09-09T03:46:17;6.03;;;2.10;;
59532;SDS011;45351;53.596;10.000;2022-09-09T03:48:44;6.87;;;2.20;;
59532;SDS011;45351;53.596;10.000;2022-09-09T03:51:11;5.53;;;2.10;;
59532;SDS011;45351;53.596;10.000;2022-09-09T03:53:39;6.80;;;2.33;;
59532;SDS011;45351;53.596;10.000;2022-09-09T03:56:06;3.80;;;2.10;;
59532;SDS011;45351;53.596;10.000;2022-09-09T03:58:33;17.10;;;4.13;;
59532;SDS011;45351;53.596;10.000;2022-09-09T04:01:06;4.23;;;2.27;;
59532;SDS011;45351;53.596;10.000;2022-09-09T04:03:35;5.90;;;2.07;;
59532;SDS011;45351;53.596;10.000;2022-09-09T04:06:03;4.60;;;2.33;;
59532;SDS011;45351;53.596;10.000;2022-09-09T04:08:32;4.80;;;2.07;;
59532;SDS011;45351;53.596;10.000;2022-09-09T04:11:02;3.97;;;2.00;;
59532;SDS011;45351;53.596;10.000;2022-09-09T04:13:30;6.90;;;2.37;;
59532;SDS011;45351;53.596;10.000;2022-09-09T04:15:58;3.40;;;2.10;;
59532;SDS011;45351;53.596;10.000;2022-09-09T04:18:27;5.90;;;2.03;;
59532;SDS011;45351;53.596;10.000;2022-09-09T04:20:54;8.77;;;2.67;;
59532;SDS011;45351;53.596;10.000;2022-09-09T04:23:23;4.37;;;2.23;;
59532;SDS011;45351;53.596;10.000;2022-09-09T04:25:53;10.23;;;2.47;;
59532;SDS011;45351;53.596;10.000;2022-09-09T04:28:22;8.00;;;2.70;;
59532;SDS011;45351;53.596;10.000;2022-09-09T04:30:52;6.90;;;2.43;;
59532;SDS011;45351;53.596;10.000;2022-09-09T04:33:19;9.80;;;2.87;;
59532;SDS011;45351;53.596;10.000;2022-09-09T04:35:49;19.03;;;3.50;;
59532;SDS011;45351;53.596;10.000;2022-09-09T04:38:19;14.47;;;4.10;;
59532;SDS011;45351;53.596;10.000;2022-09-09T04:40:48;30.60;;;3.63;;
59532;SDS011;45351;53.596;10.000;2022-09-09T04:43:16;23.80;;;4.23;;
59532;SDS011;45351;53.596;10.000;2022-09-09T04:45:48;22.63;;;3.80;;
59532;SDS011;45351;53.596;10.000;2022-09-09T04:48:18;21.47;;;3.47;;
59532;SDS011;45351;53.596;10.000;2022-09-09T04:50:53;23.10;;;4.20;;
59532;SDS011;45351;53.596;10.000;2022-09-09T04:53:21;18.43;;;3.27;;
59532;SDS011;45351;53.596;10.000;2022-09-09T04:55:48;22.23;;;3.87;;
59532;SDS011;45351;53.596;10.000;2022-09-09T04:58:15;29.77;;;3.97;;
59532;SDS011;45351;53.596;10.000;2022-09-09T05:00:42;28.23;;;3.03;;
59532;SDS011;45351;53.596;10.000;2022-09-09T05:03:11;22.77;;;3.20;;
59532;SDS011;45351;53.596;10.000;2022-09-09T05:05:38;22.00;;;3.10;;
59532;SDS011;45351;53.596;10.000;2022-09-09T05:08:05;20.10;;;3.73;;
59532;SDS011;45351;53.596;10.000;2022-09-09T05:10:34;22.17;;;3.20;;
59532;SDS011;45351;53.596;10.000;2022-09-09T05:13:04;28.93;;;3.40;;
59532;SDS011;45351;53.596;10.000;2022-09-09T05:15:32;11.83;;;3.03;;
59532;SDS011;45351;53.596;10.000;2022-09-09T05:17:59;18.40;;;3.50;;
59532;SDS011;45351;53.596;10.000;2022-09-09T05:20:30;12.63;;;2.83;;
59532;SDS011;45351;53.596;10.000;2022-09-09T05:22:58;14.60;;;2.90;;
59532;SDS011;45351;53.596;10.000;2022-09-09T05:25:27;13.70;;;2.87;;
59532;SDS011;45351;53.596;10.000;2022-09-09T05:27:55;10.77;;;2.97;;
59532;SDS011;45351;53.596;10.000;2022-09-09T05:30:22;13.70;;;2.63;;
59532;SDS011;45351;53.596;10.000;2022-09-09T05:32:51;10.93;;;2.70;;
59532;SDS011;45351;53.596;10.000;2022-09-09T05:35:18;10.70;;;2.27;;
59532;SDS011;45351;53.596;10.000;2022-09-09T05:37:47;17.63;;;2.80;;
59532;SDS011;45351;53.596;10.000;2022-09-09T05:40:14;10.13;;;2.50;;
59532;SDS011;45351;53.596;10.000;2022-09-09T05:42:41;12.07;;;2.60;;
59532;SDS011;45351;53.596;10.000;2022-09-09T05:45:08;19.80;;;2.60;;
59532;SDS011;45351;53.596;10.000;2022-09-09T05:47:37;19.97;;;2.87;;
59532;SDS011;45351;53.596;10.000;2022-09-09T05:50:07;8.40;;;2.03;;
59532;SDS011;45351;53.596;10.000;2022-09-09T05:52:34;10.80;;;2.60;;
59532;SDS011;45351;53.596;10.000;2022-09-09T05:55:05;11.23;;;2.53;;
59532;SDS011;45351;53.596;10.000;2022-09-09T05:57:33;7.83;;;2.40;;
59532;SDS011;45351;53.596;10.000;2022-09-09T06:00:00;7.40;;;2.20;;
59532;SDS011;45351;53.596;10.000;2022-09-09T06:02:39;8.37;;;2.00;;
59532;SDS011;45351;53.596;10.000;2022-09-09T06:05:07;8.10;;;2.20;;
59532;SDS011;45351;53.596;10.000;2022-09-09T06:07:36;7.50;;;1.80;;
59532;SDS011;45351;53.596;10.000;2022-09-09T06:10:09;5.20;;;2.07;;
59532;SDS011;45351;53.596;10.000;2022-09-09T06:12:38;4.57;;;1.70;;
59532;SDS011;45351;53.596;10.000;2022-09-09T06:15:06;9.90;;;2.07;;
59532;SDS011;45351;53.596;10.000;2022-09-09T06:17:34;6.13;;;1.70;;
59532;SDS011;45351;53.596;10.000;2022-09-09T06:20:01;5.83;;;1.70;;
59532;SDS011;45351;53.596;10.000;2022-09-09T06:22:30;4.87;;;1.70;;
59532;SDS011;45351;53.596;10.000;2022-09-09T06:24:57;10.43;;;2.23;;
59532;SDS011;45351;53.596;10.000;2022-09-09T06:27:28;17.53;;;2.20;;
59532;SDS011;45351;53.596;10.000;2022-09-09T06:29:55;8.87;;;2.30;;
59532;SDS011;45351;53.596;10.000;2022-09-09T06:32:22;11.13;;;2.30;;
59532;SDS011;45351;53.596;10.000;2022-09-09T06:34:49;19.63;;;2.47;;
59532;SDS011;45351;53.596;10.000;2022-09-09T06:37:16;10.80;;;2.60;;
59532;SDS011;45351;53.596;10.000;2022-09-09T06:39:47;24.00;;;2.67;;
59532;SDS011;45351;53.596;10.000;2022-09-09T06:42:14;15.40;;;2.40;;
59532;SDS011;45351;53.596;10.000;2022-09-09T06:44:58;12.33;;;2.50;;
59532;SDS011;45351;53.596;10.000;2022-09-09T06:47:42;10.33;;;1.97;;
59532;SDS011;45351;53.596;10.000;2022-09-09T06:50:09;9.90;;;2.00;;
59532;SDS011;45351;53.596;10.000;2022-09-09T06:52:37;15.90;;;2.33;;
59532;SDS011;45351;53.596;10.000;2022-09-09T06:55:04;8.37;;;2.27;;
59532;SDS011;45351;53.596;10.000;2022-09-09T06:57:33;5.00;;;2.30;;
59532;SDS011;45351;53.596;10.000;2022-09-09T07:00:02;15.53;;;2.33;;
59532;SDS011;45351;53.596;10.000;2022-09-09T07:02:30;6.60;;;1.67;;
59532;SDS011;45351;53.596;10.000;2022-09-09T07:04:57;14.63;;;2.60;;
59532;SDS011;45351;53.596;10.000;2022-09-09T07:07:24;11.43;;;2.17;;
59532;SDS011;45351;53.596;10.000;2022-09-09T07:09:52;5.90;;;2.20;;
59532;SDS011;45351;53.596;10.000;2022-09-09T07:12:19;7.80;;;2.50;;
59532;SDS011;45351;53.596;10.000;2022-09-09T07:14:53;4.53;;;2.17;;
59532;SDS011;45351;53.596;10.000;2022-09-09T07:17:21;3.87;;;2.00;;
59532;SDS011;45351;53.596;10.000;2022-09-09T07:19:48;4.43;;;2.43;;
59532;SDS011;45351;53.596;10.000;2022-09-09T07:22:16;5.67;;;2.27;;
59532;SDS011;45351;53.596;10.000;2022-09-09T07:24:44;5.97;;;1.93;;
59532;SDS011;45351;53.596;10.000;2022-09-09T07:27:12;4.53;;;1.90;;
59532;SDS011;45351;53.596;10.000;2022-09-09T07:29:40;5.23;;;1.80;;
59532;SDS011;45351;53.596;10.000;2022-09-09T07:32:07;3.80;;;1.80;;
59532;SDS011;45351;53.596;10.000;2022-09-09T07:34:37;3.80;;;2.07;;
59532;SDS011;45351;53.596;10.000;2022-09-09T07:37:05;7.03;;;2.43;;
59532;SDS011;45351;53.596;10.000;2022-09-09T07:39:33;4.07;;;2.10;;
59532;SDS011;45351;53.596;10.000;2022-09-09T07:42:00;5.27;;;2.17;;
59532;SDS011;45351;53.596;10.000;2022-09-09T07:44:27;3.93;;;1.50;;
59532;SDS011;45351;53.596;10.000;2022-09-09T07:47:00;5.43;;;2.33;;
59532;SDS011;45351;53.596;10.000;2022-09-09T07:49:33;5.43;;;2.03;;
59532;SDS011;45351;53.596;10.000;2022-09-09T07:52:03;6.77;;;1.70;;
59532;SDS011;45351;53.596;10.000;2022-09-09T07:54:31;3.30;;;1.93;;
59532;SDS011;45351;53.596;10.000;2022-09-09T07:56:59;3.27;;;1.60;;
59532;SDS011;45351;53.596;10.000;2022-09-09T07:59:29;2.07;;;1.60;;
59532;SDS011;45351;53.596;10.000;2022-09-09T08:01:56;4.30;;;1.73;;
59532;SDS011;45351;53.596;10.000;2022-09-09T08:04:27;4.90;;;1.67;;
59532;SDS011;45351;53.596;10.000;2022-09-09T08:06:55;4.30;;;1.90;;
59532;SDS011;45351;53.596;10.000;2022-09-09T08:09:26;5.17;;;2.07;;
59532;SDS011;45351;53.596;10.000;2022-09-09T08:12:00;4.30;;;1.33;;
59532;SDS011;45351;53.596;10.000;2022-09-09T08:14:28;3.20;;;1.60;;
59532;SDS011;45351;53.596;10.000;2022-09-09T08:16:56;2.30;;;1.40;;
59532;SDS011;45351;53.596;10.000;2022-09-09T08:19:25;3.03;;;1.50;;
59532;SDS011;45351;53.596;10.000;2022-09-09T08:21:54;1.77;;;1.37;;
59532;SDS011;45351;53.596;10.000;2022-09-09T08:24:22;3.27;;;1.53;;
59532;SDS011;45351;53.596;10.000;2022-09-09T08:26:51;5.30;;;1.70;;
59532;SDS011;45351;53.596;10.000;2022-09-09T08:29:21;3.03;;;1.40;;
59532;SDS011;45351;53.596;10.000;2022-09-09T08:31:50;3.10;;;1.30;;
59532;SDS011;45351;53.596;10.000;2022-09-09T08:34:19;4.00;;;1.70;;
59532;SDS011;45351;53.596;10.000;2022-09-09T08:36:49;2.63;;;1.50;;
59532;SDS011;45351;53.596;10.000;2022-09-09T08:39:20;4.37;;;1.40;;
59532;SDS011;45351;53.596;10.000;2022-09-09T08:41:58;2.70;;;1.17;;
59532;SDS011;45351;53.596;10.000;2022-09-09T08:44:49;2.10;;;1.30;;
59532;SDS011;45351;53.596;10.000;2022-09-09T08:47:31;2.00;;;1.50;;
59532;SDS011;45351;53.596;10.000;2022-09-09T08:50:13;2.40;;;1.20;;
59532;SDS011;45351;53.596;10.000;2022-09-09T08:52:53;3.73;;;1.33;;
59532;SDS011;45351;53.596;10.000;2022-09-09T08:55:26;1.83;;;1.20;;
59532;SDS011;45351;53.596;10.000;2022-09-09T08:58:03;3.43;;;1.60;;
59532;SDS011;45351;53.596;10.000;2022-09-09T09:00:39;2.57;;;1.20;;
59532;SDS011;45351;53.596;10.000;2022-09-09T09:03:14;3.50;;;1.47;;
59532;SDS011;45351;53.596;10.000;2022-09-09T09:05:48;2.47;;;1.27;;
59532;SDS011;45351;53.596;10.000;2022-09-09T09:08:24;2.13;;;1.20;;
59532;SDS011;45351;53.596;10.000;2022-09-09T09:10:54;2.53;;;1.20;;
59532;SDS011;45351;53.596;10.000;2022-09-09T09:13:30;1.90;;;1.30;;
59532;SDS011;45351;53.596;10.000;2022-09-09T09:16:02;1.60;;;1.20;;
59532;SDS011;45351;53.596;10.000;2022-09-09T09:18:36;2.50;;;1.27;;
59532;SDS011;45351;53.596;10.000;2022-09-09T09:21:03;3.00;;;1.73;;
59532;SDS011;45351;53.596;10.000;2022-09-09T09:23:40;5.00;;;1.20;;
59532;SDS011;45351;53.596;10.000;2022-09-09T09:26:12;3.10;;;1.20;;
59532;SDS011;45351;53.596;10.000;2022-09-09T09:28:41;2.40;;;1.50;;
59532;SDS011;45351;53.596;10.000;2022-09-09T09:31:14;2.27;;;1.37;;
59532;SDS011;45351;53.596;10.000;2022-09-09T09:33:47;4.07;;;1.10;;
59532;SDS011;45351;53.596;10.000;2022-09-09T09:36:17;3.40;;;1.43;;
59532;SDS011;45351;53.596;10.000;2022-09-09T09:38:53;1.47;;;1.00;;
59532;SDS011;45351;53.596;10.000;2022-09-09T09:41:29;2.30;;;1.10;;
59532;SDS011;45351;53.596;10.000;2022-09-09T09:43:58;2.20;;;1.13;;
59532;SDS011;45351;53.596;10.000;2022-09-09T09:46:27;1.80;;;1.10;;
59532;SDS011;45351;53.596;10.000;2022-09-09T09:49:08;3.17;;;1.17;;
59532;SDS011;45351;53.596;10.000;2022-09-09T09:51:37;1.30;;;1.00;;
59532;SDS011;45351;53.596;10.000;2022-09-09T09:54:08;2.80;;;1.00;;
59532;SDS011;45351;53.596;10.000;2022-09-09T09:56:44;1.70;;;1.10;;
59532;SDS011;45351;53.596;10.000;2022-09-09T09:59:21;2.23;;;0.80;;
59532;SDS011;45351;53.596;10.000;2022-09-09T10:01:50;2.60;;;1.00;;
59532;SDS011;45351;53.596;10.000;2022-09-09T10:04:19;1.57;;;0.90;;
59532;SDS011;45351;53.596;10.000;2022-09-09T10:06:50;2.40;;;1.00;;
59532;SDS011;45351;53.596;10.000;2022-09-09T10:09:21;1.97;;;0.93;;
59532;SDS011;45351;53.596;10.000;2022-09-09T10:11:52;2.90;;;1.10;;
59532;SDS011;45351;53.596;10.000;2022-09-09T10:14:32;2.03;;;1.10;;
59532;SDS011;45351;53.596;10.000;2022-09-09T10:17:09;4.10;;;1.00;;
59532;SDS011;45351;53.596;10.000;2022-09-09T10:19:50;2.50;;;1.07;;
59532;SDS011;45351;53.596;10.000;2022-09-09T10:22:26;1.20;;;0.80;;
59532;SDS011;45351;53.596;10.000;2022-09-09T10:25:15;2.40;;;1.17;;
59532;SDS011;45351;53.596;10.000;2022-09-09T10:28:06;1.63;;;0.90;;
59532;SDS011;45351;53.596;10.000;2022-09-09T10:30:46;2.80;;;1.07;;
59532;SDS011;45351;53.596;10.000;2022-09-09T10:33:21;2.80;;;0.90;;
59532;SDS011;45351;53.596;10.000;2022-09-09T10:35:57;3.37;;;1.10;;
59532;SDS011;45351;53.596;10.000;2022-09-09T10:38:33;3.20;;;0.90;;
59532;SDS011;45351;53.596;10.000;2022-09-09T10:41:13;3.10;;;1.00;;
59532;SDS011;45351;53.596;10.000;2022-09-09T10:46:55;1.40;;;1.00;;
59532;SDS011;45351;53.596;10.000;2022-09-09T10:49:38;5.27;;;1.60;;
59532;SDS011;45351;53.596;10.000;2022-09-09T10:52:22;3.87;;;1.23;;
59532;SDS011;45351;53.596;10.000;2022-09-09T10:54:54;6.07;;;1.20;;
59532;SDS011;45351;53.596;10.000;2022-09-09T10:57:25;2.07;;;1.00;;
59532;SDS011;45351;53.596;10.000;2022-09-09T10:59:58;4.60;;;1.17;;
59532;SDS011;45351;53.596;10.000;2022-09-09T11:02:32;6.23;;;1.30;;
59532;SDS011;45351;53.596;10.000;2022-09-09T11:05:01;7.43;;;1.17;;
59532;SDS011;45351;53.596;10.000;2022-09-09T11:07:33;6.37;;;1.10;;
59532;SDS011;45351;53.596;10.000;2022-09-09T11:10:06;5.03;;;1.27;;
59532;SDS011;45351;53.596;10.000;2022-09-09T11:12:43;7.00;;;0.97;;
59532;SDS011;45351;53.596;10.000;2022-09-09T11:15:14;5.17;;;1.23;;
59532;SDS011;45351;53.596;10.000;2022-09-09T11:17:48;4.07;;;1.27;;
59532;SDS011;45351;53.596;10.000;2022-09-09T11:20:19;4.27;;;1.00;;
59532;SDS011;45351;53.596;10.000;2022-09-09T11:22:47;5.60;;;1.17;;
59532;SDS011;45351;53.596;10.000;2022-09-09T11:25:19;3.67;;;0.90;;
59532;SDS011;45351;53.596;10.000;2022-09-09T11:27:53;2.10;;;1.10;;
59532;SDS011;45351;53.596;10.000;2022-09-09T11:30:33;3.80;;;1.00;;
59532;SDS011;45351;53.596;10.000;2022-09-09T11:39:06;7.27;;;1.10;;
59532;SDS011;45351;53.596;10.000;2022-09-09T11:41:52;4.60;;;1.13;;
59532;SDS011;45351;53.596;10.000;2022-09-09T11:44:21;11.13;;;1.07;;
59532;SDS011;45351;53.596;10.000;2022-09-09T11:46:57;3.97;;;1.10;;
59532;SDS011;45351;53.596;10.000;2022-09-09T11:49:27;3.83;;;1.23;;
59532;SDS011;45351;53.596;10.000;2022-09-09T11:51:56;2.50;;;0.87;;
59532;SDS011;45351;53.596;10.000;2022-09-09T11:54:32;3.00;;;0.90;;
59532;SDS011;45351;53.596;10.000;2022-09-09T11:57:15;3.13;;;1.00;;
59532;SDS011;45351;53.596;10.000;2022-09-09T11:59:56;2.83;;;1.20;;
59532;SDS011;45351;53.596;10.000;2022-09-09T12:02:23;6.23;;;1.00;;
59532;SDS011;45351;53.596;10.000;2022-09-09T12:04:57;6.03;;;1.20;;
59532;SDS011;45351;53.596;10.000;2022-09-09T12:07:32;8.73;;;1.00;;
59532;SDS011;45351;53.596;10.000;2022-09-09T12:10:05;5.63;;;1.07;;
59532;SDS011;45351;53.596;10.000;2022-09-09T12:12:46;1.40;;;0.77;;
59532;SDS011;45351;53.596;10.000;2022-09-09T12:15:17;15.60;;;0.97;;
59532;SDS011;45351;53.596;10.000;2022-09-09T12:17:47;3.77;;;1.13;;
59532;SDS011;45351;53.596;10.000;2022-09-09T12:20:18;7.40;;;1.70;;
59532;SDS011;45351;53.596;10.000;2022-09-09T12:22:52;18.77;;;1.30;;
59532;SDS011;45351;53.596;10.000;2022-09-09T12:25:41;6.73;;;1.07;;
59532;SDS011;45351;53.596;10.000;2022-09-09T12:28:40;4.87;;;1.07;;
59532;SDS011;45351;53.596;10.000;2022-09-09T12:31:14;18.67;;;2.03;;
59532;SDS011;45351;53.596;10.000;2022-09-09T12:33:47;10.73;;;1.10;;
59532;SDS011;45351;53.596;10.000;2022-09-09T12:36:17;9.67;;;1.10;;
59532;SDS011;45351;53.596;10.000;2022-09-09T12:38:48;7.43;;;0.90;;
59532;SDS011;45351;53.596;10.000;2022-09-09T12:41:19;5.27;;;1.30;;
59532;SDS011;45351;53.596;10.000;2022-09-09T12:43:48;5.93;;;1.00;;
59532;SDS011;45351;53.596;10.000;2022-09-09T12:46:20;9.53;;;1.57;;
59532;SDS011;45351;53.596;10.000;2022-09-09T12:48:53;3.50;;;1.10;;
59532;SDS011;45351;53.596;10.000;2022-09-09T12:51:23;4.20;;;1.00;;
59532;SDS011;45351;53.596;10.000;2022-09-09T12:53:53;2.70;;;0.80;;
59532;SDS011;45351;53.596;10.000;2022-09-09T12:56:21;2.47;;;0.90;;
59532;SDS011;45351;53.596;10.000;2022-09-09T12:58:52;4.33;;;1.10;;
59532;SDS011;45351;53.596;10.000;2022-09-09T13:01:21;3.90;;;0.93;;
59532;SDS011;45351;53.596;10.000;2022-09-09T13:03:50;1.83;;;0.90;;
59532;SDS011;45351;53.596;10.000;2022-09-09T13:06:19;2.37;;;1.10;;
59532;SDS011;45351;53.596;10.000;2022-09-09T13:08:49;4.33;;;1.30;;
59532;SDS011;45351;53.596;10.000;2022-09-09T13:11:17;4.40;;;1.00;;
59532;SDS011;45351;53.596;10.000;2022-09-09T13:13:50;4.27;;;1.00;;
59532;SDS011;45351;53.596;10.000;2022-09-09T13:16:19;3.00;;;0.90;;
59532;SDS011;45351;53.596;10.000;2022-09-09T13:18:48;8.00;;;0.90;;
59532;SDS011;45351;53.596;10.000;2022-09-09T13:21:16;3.97;;;0.90;;
59532;SDS011;45351;53.596;10.000;2022-09-09T13:23:47;2.90;;;1.47;;
59532;SDS011;45351;53.596;10.000;2022-09-09T13:26:21;6.50;;;0.90;;
59532;SDS011;45351;53.596;10.000;2022-09-09T13:28:49;5.77;;;1.20;;
59532;SDS011;45351;53.596;10.000;2022-09-09T13:31:21;3.20;;;0.90;;
59532;SDS011;45351;53.596;10.000;2022-09-09T13:33:49;3.67;;;0.90;;
59532;SDS011;45351;53.596;10.000;2022-09-09T13:36:26;1.97;;;0.80;;
59532;SDS011;45351;53.596;10.000;2022-09-09T13:38:57;2.50;;;0.90;;
59532;SDS011;45351;53.596;10.000;2022-09-09T13:41:28;2.90;;;0.80;;
59532;SDS011;45351;53.596;10.000;2022-09-09T13:43:58;1.50;;;0.80;;
59532;SDS011;45351;53.596;10.000;2022-09-09T13:46:27;3.30;;;0.80;;
59532;SDS011;45351;53.596;10.000;2022-09-09T13:48:58;3.90;;;0.80;;
59532;SDS011;45351;53.596;10.000;2022-09-09T13:51:30;2.30;;;0.93;;
59532;SDS011;45351;53.596;10.000;2022-09-09T13:54:03;1.30;;;0.73;;
59532;SDS011;45351;53.596;10.000;2022-09-09T13:56:31;1.23;;;0.80;;
59532;SDS011;45351;53.596;10.000;2022-09-09T13:58:58;2.20;;;1.00;;
59532;SDS011;45351;53.596;10.000;2022-09-09T14:01:25;3.30;;;0.83;;
59532;SDS011;45351;53.596;10.000;2022-09-09T14:03:53;2.07;;;0.90;;
59532;SDS011;45351;53.596;10.000;2022-09-09T14:06:20;1.40;;;0.80;;
59532;SDS011;45351;53.596;10.000;2022-09-09T14:08:48;3.23;;;0.90;;
59532;SDS011;45351;53.596;10.000;2022-09-09T14:11:17;2.60;;;1.00;;
59532;SDS011;45351;53.596;10.000;2022-09-09T14:13:46;6.70;;;0.87;;
59532;SDS011;45351;53.596;10.000;2022-09-09T14:16:15;2.53;;;0.80;;
59532;SDS011;45351;53.596;10.000;2022-09-09T14:18:42;1.20;;;0.70;;
59532;SDS011;45351;53.596;10.000;2022-09-09T14:21:09;2.03;;;0.70;;
59532;SDS011;45351;53.596;10.000;2022-09-09T14:23:36;1.30;;;0.87;;
59532;SDS011;45351;53.596;10.000;2022-09-09T14:26:03;2.43;;;0.70;;
59532;SDS011;45351;53.596;10.000;2022-09-09T14:28:32;3.80;;;1.13;;
59532;SDS011;45351;53.596;10.000;2022-09-09T14:30:59;1.50;;;0.87;;
59532;SDS011;45351;53.596;10.000;2022-09-09T14:33:26;1.10;;;0.80;;
59532;SDS011;45351;53.596;10.000;2022-09-09T14:35:55;1.80;;;0.90;;
59532;SDS011;45351;53.596;10.000;2022-09-09T14:38:23;5.20;;;0.90;;
59532;SDS011;45351;53.596;10.000;2022-09-09T14:40:50;1.83;;;0.80;;
59532;SDS011;45351;53.596;10.000;2022-09-09T14:43:16;2.20;;;0.80;;
59532;SDS011;45351;53.596;10.000;2022-09-09T14:45:45;1.30;;;0.80;;
59532;SDS011;45351;53.596;10.000;2022-09-09T14:48:13;1.10;;;0.70;;
59532;SDS011;45351;53.596;10.000;2022-09-09T14:50:40;1.20;;;0.70;;
59532;SDS011;45351;53.596;10.000;2022-09-09T14:53:06;1.23;;;0.70;;
59532;SDS011;45351;53.596;10.000;2022-09-09T14:55:34;1.30;;;0.80;;
59532;SDS011;45351;53.596;10.000;2022-09-09T14:58:01;1.90;;;0.70;;
59532;SDS011;45351;53.596;10.000;2022-09-09T15:00:28;1.17;;;0.70;;
59532;SDS011;45351;53.596;10.000;2022-09-09T15:02:57;2.40;;;0.80;;
59532;SDS011;45351;53.596;10.000;2022-09-09T15:05:23;1.40;;;0.70;;
59532;SDS011;45351;53.596;10.000;2022-09-09T15:07:50;1.63;;;0.80;;